Cottonwd Hgts, Utah
Current Conditions -  °F | °C
As of 12:53 PM on Wednesday 28 Jan 2015 (Local Time) from KSLC Reporting Station
Broken Clouds Broken Clouds  
Wind Chill:   Ceiling: 5500
Heat Index:   Visibility: 10mi
Dew Point:   Wind: 7mph
Humidity: 63%   Direction: 340°NNW
Pressure: 30.3"   Gusts: NA
Location:  40.615°N, 111.891°W
Report Text: KSLC 281953Z 34006KT 10SM SCT047 BKN055 BKN075 09/02 A3030 RMK AO2 SLP250 T00890022
Loading
Personal Weather Stations






























Interactive Weather Map New forecast layout! Learn more

10-Day Weather Forecast

Advertisements
Track Severe Weather on mobile